Time;durP1;ratioP1;P1;durP2;ratioP2;P2;SDS_P1;SDS_P2;PMS_P1;PMS_P2;Temp;Humidity;BMP_temperature;BMP_pressure;BME280_temperature;BME280_humidity;BME280_pressure;Samples;Min_cycle;Max_cycle;Signal;HPM_P1;HPM_P2
2022/07/27 00:02:25;;;;;;;5.55;3.85;;;25.50;54.10;;;;;;5031915;28;20029;-16
2022/07/27 00:04:51;;;;;;;5.60;3.83;;;25.50;54.40;;;;;;5033707;28;20032;-14
2022/07/27 00:07:16;;;;;;;5.38;3.53;;;25.50;54.40;;;;;;5033425;28;20030;-14
2022/07/27 00:09:42;;;;;;;4.82;3.80;;;25.50;54.20;;;;;;5033235;28;20061;-14
2022/07/27 00:12:08;;;;;;;6.18;3.72;;;25.50;54.70;;;;;;5033330;28;20117;-14
2022/07/27 00:14:34;;;;;;;6.57;3.90;;;25.40;54.60;;;;;;5033023;28;20439;-14
2022/07/27 00:17:00;;;;;;;5.43;3.58;;;25.40;54.50;;;;;;5033241;28;20041;-16
2022/07/27 00:19:26;;;;;;;7.32;4.13;;;25.40;54.60;;;;;;5033299;28;20018;-14
2022/07/27 00:21:53;;;;;;;6.47;3.55;;;25.40;54.50;;;;;;5033265;28;20094;-16
2022/07/27 00:24:19;;;;;;;5.47;4.00;;;25.40;54.60;;;;;;5033133;28;20061;-14
2022/07/27 00:26:45;;;;;;;5.40;3.85;;;25.40;54.70;;;;;;5033524;28;20077;-14
2022/07/27 00:29:11;;;;;;;6.68;3.72;;;25.40;55.00;;;;;;5033019;28;20036;-13
2022/07/27 00:31:37;;;;;;;5.50;3.55;;;25.30;54.80;;;;;;5032847;28;20104;-14
2022/07/27 00:34:03;;;;;;;5.32;3.88;;;25.40;54.90;;;;;;5033324;28;20397;-14
2022/07/27 00:36:29;;;;;;;5.55;3.80;;;25.30;55.10;;;;;;5036797;28;20033;-16
2022/07/27 00:38:55;;;;;;;5.43;3.35;;;25.30;55.10;;;;;;5035791;28;20083;-15
2022/07/27 00:41:20;;;;;;;5.38;3.85;;;25.20;55.30;;;;;;5037307;28;20026;-15
2022/07/27 00:43:58;;;;;;;4.65;3.58;;;25.20;55.60;;;;;;5037223;28;20087;-15
2022/07/27 00:46:26;;;;;;;6.97;4.03;;;25.20;55.50;;;;;;5036790;28;20473;-13
2022/07/27 00:48:52;;;;;;;5.57;3.70;;;25.10;55.30;;;;;;5036737;28;20025;-15
2022/07/27 00:51:20;;;;;;;6.40;4.00;;;25.10;55.50;;;;;;5037095;28;20087;-15
2022/07/27 00:53:47;;;;;;;5.30;3.90;;;25.20;55.60;;;;;;5036970;28;20048;-14
2022/07/27 00:56:14;;;;;;;6.38;3.92;;;25.10;55.40;;;;;;5036744;28;20026;-15
2022/07/27 00:58:41;;;;;;;4.97;3.63;;;25.10;55.70;;;;;;5037014;28;20037;-15
2022/07/27 01:01:07;;;;;;;5.65;3.45;;;25.10;55.50;;;;;;5036833;28;20025;-13
2022/07/27 01:03:32;;;;;;;6.53;3.63;;;25.10;55.30;;;;;;5036807;28;20074;-15
2022/07/27 01:05:59;;;;;;;6.07;3.40;;;25.10;55.40;;;;;;5036472;28;20381;-14
2022/07/27 01:08:25;;;;;;;5.72;3.67;;;25.00;55.30;;;;;;5036410;28;20025;-14
2022/07/27 01:10:55;;;;;;;5.03;3.42;;;25.00;55.50;;;;;;5036470;28;20052;-15
2022/07/27 01:13:22;;;;;;;4.72;3.60;;;25.00;55.20;;;;;;5036335;28;20406;-15
2022/07/27 01:15:48;;;;;;;6.45;3.60;;;25.10;55.20;;;;;;5036485;28;20389;-14
2022/07/27 01:18:28;;;;;;;6.18;3.65;;;25.00;55.30;;;;;;5036271;28;20033;-15
2022/07/27 01:20:54;;;;;;;4.55;3.38;;;25.00;55.60;;;;;;5036538;28;20029;-15
2022/07/27 01:23:22;;;;;;;5.15;3.53;;;24.90;55.60;;;;;;5036540;28;20029;-16
2022/07/27 01:25:48;;;;;;;4.05;3.33;;;24.90;55.60;;;;;;5036303;28;20025;-14
2022/07/27 01:28:14;;;;;;;5.45;3.75;;;24.90;55.70;;;;;;5036067;28;20037;-15
2022/07/27 01:30:39;;;;;;;5.43;3.45;;;24.90;55.90;;;;;;5036554;28;20065;-14
2022/07/27 01:33:08;;;;;;;5.72;3.40;;;24.90;56.00;;;;;;5035808;28;20025;-14
2022/07/27 01:35:35;;;;;;;5.22;3.75;;;24.80;56.00;;;;;;5036299;28;20026;-14
2022/07/27 01:38:01;;;;;;;4.97;3.20;;;24.80;55.90;;;;;;5036207;28;20029;-14
2022/07/27 01:40:28;;;;;;;4.68;3.40;;;24.80;55.90;;;;;;5035735;28;20025;-14
2022/07/27 01:42:54;;;;;;;5.05;3.55;;;24.80;55.90;;;;;;5036130;28;20018;-14
2022/07/27 01:45:20;;;;;;;5.88;3.78;;;24.80;55.90;;;;;;5035357;28;20057;-14
2022/07/27 01:47:47;;;;;;;6.15;3.90;;;24.80;56.00;;;;;;5035094;28;20056;-14
2022/07/27 01:50:14;;;;;;;4.75;3.53;;;24.80;55.90;;;;;;5036124;28;20029;-13
2022/07/27 01:52:40;;;;;;;4.78;3.00;;;24.70;56.00;;;;;;5036035;28;20065;-14
2022/07/27 01:55:10;;;;;;;4.93;3.50;;;24.80;55.90;;;;;;5036016;28;20079;-14
2022/07/27 01:57:37;;;;;;;4.93;3.20;;;24.80;56.00;;;;;;5035850;28;20028;-14
2022/07/27 02:00:07;;;;;;;6.15;3.50;;;24.70;55.90;;;;;;5035735;28;20022;-14
2022/07/27 02:02:33;;;;;;;4.65;3.40;;;24.70;56.00;;;;;;5035513;28;20033;-14
2022/07/27 02:04:59;;;;;;;4.70;3.38;;;24.70;56.00;;;;;;5034194;28;20029;-14
2022/07/27 02:07:25;;;;;;;4.63;3.40;;;24.60;56.00;;;;;;5035732;28;20021;-14
2022/07/27 02:09:51;;;;;;;4.47;3.10;;;24.60;56.00;;;;;;5035469;28;20436;-14
2022/07/27 02:12:35;;;;;;;4.80;3.50;;;24.60;56.00;;;;;;5035126;28;20512;-14
2022/07/27 02:15:18;;;;;;;5.13;3.30;;;24.60;56.20;;;;;;5035746;28;20049;-15
2022/07/27 02:17:45;;;;;;;4.75;3.05;;;24.60;56.40;;;;;;5035234;28;20029;-14
2022/07/27 02:20:13;;;;;;;8.13;3.72;;;24.60;56.20;;;;;;5035375;28;20045;-14
2022/07/27 02:22:39;;;;;;;4.72;3.17;;;24.50;56.30;;;;;;5035103;28;20075;-14
2022/07/27 02:25:06;;;;;;;5.82;3.20;;;24.50;56.40;;;;;;5035073;28;20556;-14
2022/07/27 02:27:32;;;;;;;6.25;3.53;;;24.50;56.40;;;;;;5034183;28;20120;-14
2022/07/27 02:29:58;;;;;;;4.35;3.20;;;24.50;56.50;;;;;;5034957;28;20113;-14
2022/07/27 02:32:24;;;;;;;5.90;3.20;;;24.40;56.50;;;;;;5034490;28;20435;-14
2022/07/27 02:34:50;;;;;;;5.75;3.42;;;24.40;56.50;;;;;;5034937;28;20021;-14
2022/07/27 02:37:16;;;;;;;6.45;3.60;;;24.40;56.60;;;;;;5035035;28;20021;-14
2022/07/27 02:39:42;;;;;;;4.65;3.45;;;24.40;56.80;;;;;;5033868;28;20033;-14
2022/07/27 02:42:09;;;;;;;5.88;3.63;;;24.40;57.20;;;;;;5035207;28;20061;-14
2022/07/27 02:44:34;;;;;;;5.88;3.70;;;24.30;57.40;;;;;;5034254;28;20132;-15
2022/07/27 02:47:01;;;;;;;4.75;3.20;;;24.30;57.50;;;;;;5034842;28;20109;-14
2022/07/27 02:49:27;;;;;;;5.40;3.40;;;24.20;57.50;;;;;;5035049;28;20112;-15
2022/07/27 02:51:53;;;;;;;5.47;3.58;;;24.20;57.90;;;;;;5034716;28;20116;-14
2022/07/27 02:54:24;;;;;;;6.03;3.58;;;24.30;58.00;;;;;;5034291;28;20072;-14
2022/07/27 02:56:55;;;;;;;4.40;3.28;;;24.30;58.10;;;;;;5034217;28;20494;-14
2022/07/27 02:59:21;;;;;;;7.30;4.10;;;24.30;58.00;;;;;;5034785;28;20029;-13
2022/07/27 03:01:48;;;;;;;6.07;3.63;;;24.30;57.90;;;;;;5033131;28;20032;-14
2022/07/27 03:04:15;;;;;;;6.57;4.10;;;24.20;57.90;;;;;;5034368;28;20018;-17
2022/07/27 03:06:42;;;;;;;4.47;3.25;;;24.20;58.00;;;;;;5033228;28;20037;-14
2022/07/27 03:09:08;;;;;;;8.35;3.35;;;24.20;58.00;;;;;;5034546;28;20126;-14
2022/07/27 03:11:34;;;;;;;5.20;3.40;;;24.20;58.20;;;;;;5034146;28;20551;-14
2022/07/27 03:14:00;;;;;;;5.10;3.35;;;24.20;58.40;;;;;;5034357;28;20037;-14
2022/07/27 03:16:26;;;;;;;6.60;3.45;;;24.10;58.40;;;;;;5033979;28;20398;-14
2022/07/27 03:18:52;;;;;;;4.75;3.40;;;24.20;58.60;;;;;;5034048;28;20030;-14
2022/07/27 03:21:18;;;;;;;4.68;3.50;;;24.20;58.70;;;;;;5034221;28;20100;-14
2022/07/27 03:23:44;;;;;;;70.85;7.57;;;24.20;58.80;;;;;;5033932;28;20547;-14
2022/07/27 03:26:10;;;;;;;46.65;7.60;;;24.30;61.10;;;;;;5034210;28;20030;-14
2022/07/27 03:28:36;;;;;;;21.13;4.75;;;24.30;61.80;;;;;;5032398;28;20500;-14
2022/07/27 03:31:02;;;;;;;22.30;5.20;;;24.30;62.70;;;;;;5034242;28;20021;-14
2022/07/27 03:33:28;;;;;;;11.77;4.22;;;24.20;63.50;;;;;;5033978;28;20033;-14
2022/07/27 03:35:54;;;;;;;11.93;4.65;;;24.10;64.00;;;;;;5033705;28;20486;-14
2022/07/27 03:38:21;;;;;;;8.02;4.50;;;24.00;64.80;;;;;;5033778;28;20034;-14
2022/07/27 03:40:48;;;;;;;11.68;4.10;;;23.90;65.60;;;;;;5034282;28;20098;-14
2022/07/27 03:43:14;;;;;;;16.40;4.50;;;23.70;66.20;;;;;;5033805;28;20056;-15
2022/07/27 03:45:39;;;;;;;8.35;4.10;;;23.50;67.20;;;;;;5033595;28;20065;-14
2022/07/27 03:48:05;;;;;;;10.80;4.57;;;23.30;67.60;;;;;;5033770;28;20447;-15
2022/07/27 03:50:32;;;;;;;9.35;4.63;;;23.10;68.50;;;;;;5033489;28;20550;-14
2022/07/27 03:52:58;;;;;;;10.15;4.43;;;22.90;68.80;;;;;;5033392;28;20034;-15
2022/07/27 03:55:24;;;;;;;7.07;4.30;;;22.90;69.10;;;;;;5033603;28;20029;-15
2022/07/27 03:57:51;;;;;;;8.27;4.10;;;22.80;68.40;;;;;;5033563;28;20025;-15
2022/07/27 04:00:18;;;;;;;8.40;4.40;;;22.90;68.00;;;;;;5033164;28;20104;-15
2022/07/27 04:02:43;;;;;;;7.57;4.10;;;22.90;67.60;;;;;;5033510;28;20461;-14
2022/07/27 04:05:10;;;;;;;8.27;4.47;;;22.70;67.90;;;;;;5033219;28;20032;-13
2022/07/27 04:07:36;;;;;;;6.25;3.63;;;22.70;67.50;;;;;;5033550;28;20029;-14
2022/07/27 04:10:03;;;;;;;6.38;4.20;;;22.50;67.50;;;;;;5032869;28;20059;-13
2022/07/27 04:12:29;;;;;;;8.75;4.13;;;22.40;68.10;;;;;;5032956;28;20037;-14
2022/07/27 04:14:55;;;;;;;9.20;4.00;;;22.30;68.70;;;;;;5033355;28;20021;-14
2022/07/27 04:17:20;;;;;;;7.18;4.10;;;22.20;68.60;;;;;;5033406;28;20031;-15
2022/07/27 04:19:46;;;;;;;6.18;3.92;;;22.10;68.50;;;;;;5033711;28;20033;-14
2022/07/27 04:22:12;;;;;;;7.95;3.95;;;22.00;68.70;;;;;;5033242;28;20026;-14
2022/07/27 04:24:38;;;;;;;7.35;3.60;;;21.90;68.70;;;;;;5032861;28;20102;-15
2022/07/27 04:27:04;;;;;;;6.93;4.13;;;21.90;69.00;;;;;;5031781;28;20033;-14
2022/07/27 04:29:30;;;;;;;9.13;4.10;;;21.80;69.20;;;;;;5033258;28;20075;-15
2022/07/27 04:31:55;;;;;;;5.82;3.95;;;21.80;69.30;;;;;;5033204;28;20025;-14
2022/07/27 04:34:21;;;;;;;7.95;4.13;;;21.70;71.10;;;;;;5032774;28;20425;-14
2022/07/27 04:36:48;;;;;;;6.00;3.60;;;21.50;72.00;;;;;;5033051;28;20076;-13
2022/07/27 04:39:15;;;;;;;7.03;3.88;;;21.40;71.90;;;;;;5032817;28;20029;-14
2022/07/27 04:41:41;;;;;;;5.82;4.00;;;21.40;72.10;;;;;;5031677;28;20385;-14
2022/07/27 04:44:07;;;;;;;6.82;3.60;;;21.40;71.80;;;;;;5032909;28;20461;-14
2022/07/27 04:46:33;;;;;;;6.00;4.00;;;21.40;71.80;;;;;;5031466;28;20074;-14
2022/07/27 04:49:01;;;;;;;7.95;4.03;;;21.40;71.90;;;;;;5032898;28;20022;-14
2022/07/27 04:51:28;;;;;;;7.85;4.03;;;21.40;72.20;;;;;;5032806;28;20100;-15
2022/07/27 04:53:54;;;;;;;8.75;4.38;;;21.40;72.80;;;;;;5032938;28;20030;-15
2022/07/27 04:56:20;;;;;;;6.78;3.72;;;21.30;72.00;;;;;;5032940;28;20025;-15
2022/07/27 04:58:46;;;;;;;5.95;3.80;;;21.40;72.30;;;;;;5032081;28;20496;-15
2022/07/27 05:01:12;;;;;;;7.57;3.95;;;21.40;72.10;;;;;;5031459;28;20396;-14
2022/07/27 05:03:41;;;;;;;7.53;4.35;;;21.40;72.40;;;;;;5032680;28;20018;-15
2022/07/27 05:06:07;;;;;;;7.32;4.72;;;21.40;73.00;;;;;;5032785;28;20021;-14
2022/07/27 05:08:34;;;;;;;10.35;4.70;;;21.40;72.90;;;;;;5032554;28;20026;-13
2022/07/27 05:11:00;;;;;;;10.43;4.47;;;21.40;74.90;;;;;;5032887;28;20531;-15
2022/07/27 05:13:26;;;;;;;10.57;5.05;;;21.40;74.80;;;;;;5032964;28;20064;-12
2022/07/27 05:15:52;;;;;;;8.10;4.97;;;21.40;74.40;;;;;;5032852;28;20052;-15
2022/07/27 05:18:19;;;;;;;7.95;4.45;;;21.40;74.90;;;;;;5032370;28;20030;-16
2022/07/27 05:20:45;;;;;;;8.50;4.93;;;21.40;74.70;;;;;;5034044;28;20029;-10
2022/07/27 05:23:11;;;;;;;8.55;5.10;;;21.40;74.80;;;;;;5036536;28;20047;-15
2022/07/27 05:25:37;;;;;;;10.00;4.70;;;21.40;76.40;;;;;;5036522;28;20471;-15
2022/07/27 05:28:02;;;;;;;10.95;4.88;;;21.40;75.60;;;;;;5036450;28;20408;-15
2022/07/27 05:30:28;;;;;;;14.18;5.05;;;21.40;76.00;;;;;;5035915;28;20596;-15
2022/07/27 05:32:54;;;;;;;11.00;4.50;;;21.50;75.70;;;;;;5036447;28;20041;-14
2022/07/27 05:35:21;;;;;;;11.35;5.70;;;21.50;75.00;;;;;;5036705;28;20091;-15
2022/07/27 05:37:47;;;;;;;10.27;4.78;;;21.50;74.60;;;;;;5036121;28;20544;-15
2022/07/27 05:40:13;;;;;;;7.25;4.93;;;21.60;74.10;;;;;;5035850;28;20072;-16
2022/07/27 05:42:42;;;;;;;7.63;4.75;;;21.70;73.60;;;;;;5036433;28;20055;-15
2022/07/27 05:45:10;;;;;;;8.32;4.72;;;21.90;72.90;;;;;;5035784;28;20046;-15
2022/07/27 05:47:37;;;;;;;7.22;4.80;;;22.00;72.50;;;;;;5035853;28;20033;-14
2022/07/27 05:50:03;;;;;;;8.23;4.80;;;22.10;72.10;;;;;;5035768;28;20065;-14
2022/07/27 05:52:29;;;;;;;10.82;5.10;;;22.20;71.70;;;;;;5035445;28;20026;-15
2022/07/27 05:54:55;;;;;;;8.88;4.70;;;22.30;71.20;;;;;;5035677;28;20021;-15
2022/07/27 05:57:21;;;;;;;11.10;4.72;;;22.40;70.70;;;;;;5035853;28;20028;-15
2022/07/27 05:59:47;;;;;;;8.13;4.53;;;22.40;70.20;;;;;;5035523;28;20036;-15
2022/07/27 06:02:13;;;;;;;17.95;5.93;;;22.50;69.80;;;;;;5035581;28;20032;-16
2022/07/27 06:04:39;;;;;;;10.40;5.03;;;22.60;69.50;;;;;;5035817;28;20029;-15
2022/07/27 06:09:49;;;;;;;6.18;4.22;;;22.70;69.30;;;;;;5035773;28;20567;-15
2022/07/27 06:12:15;;;;;;;11.20;4.80;;;22.70;69.10;;;;;;5035022;28;20057;-15
2022/07/27 06:14:41;;;;;;;7.80;4.85;;;22.80;69.00;;;;;;5035399;28;20032;-15
2022/07/27 06:17:08;;;;;;;8.82;5.05;;;22.90;69.10;;;;;;5035077;28;20025;-15
2022/07/27 06:19:38;;;;;;;9.32;4.95;;;22.90;69.20;;;;;;5035504;28;20037;-14
2022/07/27 06:22:05;;;;;;;8.73;4.97;;;23.00;69.60;;;;;;5035165;28;20116;-15
2022/07/27 06:24:32;;;;;;;7.82;5.18;;;23.00;68.80;;;;;;5035001;28;20530;-14
2022/07/27 06:26:58;;;;;;;10.20;4.90;;;23.20;68.60;;;;;;5035406;28;20033;-15
2022/07/27 06:29:24;;;;;;;9.40;4.97;;;23.30;68.60;;;;;;5035280;28;20030;-15
2022/07/27 06:31:50;;;;;;;7.40;4.47;;;23.40;68.20;;;;;;5034328;28;20396;-15
2022/07/27 06:34:16;;;;;;;8.32;4.50;;;23.50;67.70;;;;;;5034501;28;20025;-15
2022/07/27 06:36:43;;;;;;;10.05;5.10;;;23.60;67.10;;;;;;5034849;28;20083;-14
2022/07/27 06:39:11;;;;;;;9.57;4.85;;;23.80;66.60;;;;;;5035155;28;20026;-14
2022/07/27 06:41:37;;;;;;;7.75;4.22;;;23.90;66.30;;;;;;5034818;28;20116;-14
2022/07/27 06:44:03;;;;;;;7.68;4.32;;;24.10;65.90;;;;;;5034701;28;20060;-14
2022/07/27 06:46:29;;;;;;;6.65;4.38;;;24.30;65.80;;;;;;5034673;28;20029;-15
2022/07/27 06:48:55;;;;;;;8.68;4.03;;;24.40;65.10;;;;;;5033367;28;20059;-15
2022/07/27 06:51:22;;;;;;;5.68;4.38;;;24.60;64.80;;;;;;5034516;28;20512;-14
2022/07/27 06:53:53;;;;;;;7.50;4.60;;;24.70;64.40;;;;;;5034674;28;20029;-14
2022/07/27 06:56:21;;;;;;;7.65;4.32;;;24.90;64.00;;;;;;5033527;28;20022;-14
2022/07/27 06:58:47;;;;;;;6.47;4.18;;;25.00;63.80;;;;;;5034474;28;20028;-14
2022/07/27 07:01:14;;;;;;;6.97;4.38;;;25.20;63.80;;;;;;5034488;28;20025;-15
2022/07/27 07:03:40;;;;;;;6.88;4.18;;;25.20;63.30;;;;;;5034250;28;20075;-14
2022/07/27 07:06:06;;;;;;;9.23;4.40;;;25.40;62.70;;;;;;5034451;28;20034;-14
2022/07/27 07:08:32;;;;;;;7.38;4.30;;;25.50;62.00;;;;;;5034062;28;20061;-14
2022/07/27 07:10:57;;;;;;;6.78;3.90;;;25.70;61.80;;;;;;5034198;28;20029;-15
2022/07/27 07:13:23;;;;;;;8.07;4.05;;;25.90;62.00;;;;;;5034350;28;20030;-15
2022/07/27 07:15:49;;;;;;;8.20;4.38;;;26.00;61.20;;;;;;5034112;28;20386;-15
2022/07/27 07:18:15;;;;;;;6.05;4.00;;;26.20;60.30;;;;;;5033979;28;20071;-15
2022/07/27 07:20:41;;;;;;;5.57;3.78;;;26.30;59.80;;;;;;5034296;28;20432;-15
2022/07/27 07:23:07;;;;;;;8.77;4.00;;;26.40;59.70;;;;;;5034010;28;20075;-14
2022/07/27 07:25:34;;;;;;;5.57;3.78;;;26.70;59.50;;;;;;5034010;28;20095;-15
2022/07/27 07:28:00;;;;;;;6.28;3.72;;;26.90;58.70;;;;;;5032757;28;20055;-14
2022/07/27 07:30:27;;;;;;;6.90;4.25;;;27.00;58.10;;;;;;5033975;28;20061;-14
2022/07/27 07:32:54;;;;;;;7.97;4.18;;;27.10;57.70;;;;;;5033758;28;20037;-15
2022/07/27 07:35:20;;;;;;;6.00;4.10;;;27.20;57.00;;;;;;5033816;28;20036;-15
2022/07/27 07:37:46;;;;;;;6.28;4.30;;;27.30;57.00;;;;;;5034028;28;20013;-14
2022/07/27 07:40:12;;;;;;;11.02;4.47;;;27.30;56.20;;;;;;5033709;28;20132;-14
2022/07/27 07:42:53;;;;;;;6.18;3.90;;;27.40;55.50;;;;;;5033743;28;20105;-14
2022/07/27 07:45:23;;;;;;;10.95;4.47;;;27.40;54.90;;;;;;5033822;28;20073;-14
2022/07/27 07:47:50;;;;;;;6.63;3.70;;;27.50;55.50;;;;;;5033762;28;20028;-14
2022/07/27 07:50:17;;;;;;;9.45;4.45;;;27.50;55.60;;;;;;5033731;28;20021;-14
2022/07/27 07:52:43;;;;;;;7.18;4.30;;;27.60;55.40;;;;;;5033528;28;20120;-14
2022/07/27 07:55:10;;;;;;;7.22;4.03;;;27.70;55.10;;;;;;5033445;28;20021;-14
2022/07/27 07:57:36;;;;;;;5.95;4.28;;;27.90;54.90;;;;;;5033408;28;20108;-14
2022/07/27 08:00:05;;;;;;;7.85;4.35;;;28.30;54.20;;;;;;5033681;28;20017;-14
2022/07/27 08:02:31;;;;;;;6.65;3.80;;;28.50;53.40;;;;;;5033077;28;20049;-14
2022/07/27 08:04:57;;;;;;;9.45;4.55;;;28.60;52.60;;;;;;5033625;28;20114;-14
2022/07/27 08:07:22;;;;;;;6.80;4.18;;;28.70;52.50;;;;;;5033324;28;20183;-14
2022/07/27 08:09:49;;;;;;;9.82;4.47;;;28.80;52.40;;;;;;5033258;28;20025;-14
2022/07/27 08:12:15;;;;;;;6.30;4.03;;;28.80;52.00;;;;;;5032933;28;20033;-15
2022/07/27 08:14:41;;;;;;;6.30;4.30;;;28.70;52.20;;;;;;5033568;28;20465;-11
2022/07/27 08:17:06;;;;;;;5.80;4.07;;;28.70;52.10;;;;;;5033090;28;20393;-14
2022/07/27 08:19:32;;;;;;;10.68;4.60;;;28.60;52.30;;;;;;5033296;28;20036;-14
2022/07/27 08:21:58;;;;;;;7.65;4.60;;;28.80;52.30;;;;;;5033348;28;20492;-14
2022/07/27 08:24:24;;;;;;;6.88;4.07;;;28.80;51.70;;;;;;5033128;28;20060;-15
2022/07/27 08:26:50;;;;;;;7.32;4.20;;;28.70;51.80;;;;;;5033353;28;20473;-13
2022/07/27 08:29:16;;;;;;;7.10;4.10;;;28.70;52.40;;;;;;5033274;28;20393;-15
2022/07/27 08:31:42;;;;;;;5.90;4.05;;;28.70;52.50;;;;;;5033356;28;20053;-15
2022/07/27 08:34:08;;;;;;;6.88;4.18;;;28.80;51.70;;;;;;5032828;28;20076;-15
2022/07/27 08:36:34;;;;;;;6.07;3.83;;;28.90;52.20;;;;;;5032890;28;20037;-14
2022/07/27 08:39:05;;;;;;;8.57;4.50;;;28.90;51.90;;;;;;5031723;28;20029;-14
2022/07/27 08:41:31;;;;;;;8.70;4.80;;;29.00;51.60;;;;;;5033196;28;20473;-14
2022/07/27 08:43:58;;;;;;;6.88;3.97;;;29.10;51.80;;;;;;5032987;28;20048;-15
2022/07/27 08:46:26;;;;;;;7.78;4.22;;;29.20;51.60;;;;;;5032722;28;20512;-14
2022/07/27 08:48:52;;;;;;;7.35;4.45;;;29.40;51.00;;;;;;5032973;28;20021;-14
2022/07/27 08:51:19;;;;;;;7.63;4.53;;;29.50;51.10;;;;;;5032761;28;20025;-14
2022/07/27 08:53:46;;;;;;;6.82;4.18;;;29.60;50.90;;;;;;5032880;28;20112;-14
2022/07/27 08:56:12;;;;;;;7.72;4.43;;;29.80;50.20;;;;;;5034873;28;20120;-14
2022/07/27 08:58:38;;;;;;;7.38;4.65;;;30.00;49.80;;;;;;5036765;28;20025;-14
2022/07/27 09:01:04;;;;;;;6.88;4.60;;;30.20;49.20;;;;;;5037044;28;20592;-14
2022/07/27 09:03:31;;;;;;;6.20;4.07;;;30.50;49.20;;;;;;5036843;28;20030;-14
2022/07/27 09:05:57;;;;;;;6.93;4.32;;;30.60;47.80;;;;;;5036695;28;20025;-14
2022/07/27 09:08:26;;;;;;;7.53;4.60;;;30.40;47.40;;;;;;5036826;28;20029;-14
2022/07/27 09:10:55;;;;;;;5.63;4.13;;;30.40;47.40;;;;;;5036451;28;20033;-14
2022/07/27 09:13:24;;;;;;;7.03;4.53;;;30.70;47.40;;;;;;5036574;28;20037;-14
2022/07/27 09:15:51;;;;;;;7.22;4.60;;;30.80;46.30;;;;;;5036690;28;20072;-14
2022/07/27 09:18:23;;;;;;;7.78;4.43;;;30.80;47.00;;;;;;5036192;28;20018;-13
2022/07/27 09:21:10;;;;;;;6.88;4.05;;;30.90;46.30;;;;;;5036744;28;20083;-13
2022/07/27 09:23:41;;;;;;;6.97;4.30;;;31.20;43.50;;;;;;5036592;28;20094;-15
2022/07/27 09:26:11;;;;;;;5.57;4.20;;;31.30;44.60;;;;;;5036458;28;20017;-15
2022/07/27 09:28:37;;;;;;;5.88;3.97;;;31.60;43.30;;;;;;5036025;28;20022;-15
2022/07/27 09:31:09;;;;;;;5.90;4.07;;;31.70;43.70;;;;;;5036457;28;20025;-14
2022/07/27 09:33:52;;;;;;;6.57;4.10;;;32.00;42.90;;;;;;5036070;28;20528;-14
2022/07/27 09:36:19;;;;;;;;;;;32.10;42.00;;;;;;5036726;28;20025;-14
2022/07/27 09:39:04;;;;;;;5.18;4.03;;;32.20;42.20;;;;;;5036018;28;19912;-13
2022/07/27 09:41:45;;;;;;;5.68;4.38;;;32.30;42.00;;;;;;5036238;28;20381;-15
2022/07/27 09:44:12;;;;;;;8.50;4.40;;;32.40;41.90;;;;;;5035786;28;20022;-15
2022/07/27 09:46:41;;;;;;;7.70;3.97;;;32.30;42.00;;;;;;5035706;28;20160;-14
2022/07/27 09:49:33;;;;;;;5.82;4.40;;;32.20;42.30;;;;;;5034499;28;20493;-13
2022/07/27 09:52:01;;;;;;;8.20;4.32;;;32.30;42.60;;;;;;5035892;28;20089;-13
2022/07/27 09:54:42;;;;;;;6.03;4.47;;;32.40;42.40;;;;;;5035570;28;20025;-14
2022/07/27 09:57:08;;;;;;;6.65;4.22;;;32.30;42.10;;;;;;5036041;28;20112;-15
2022/07/27 09:59:34;;;;;;;5.28;4.25;;;32.10;42.50;;;;;;5035567;28;20041;-14
2022/07/27 10:02:00;;;;;;;4.70;3.83;;;32.30;42.80;;;;;;5035636;28;20033;-14
2022/07/27 10:04:26;;;;;;;6.47;4.07;;;32.70;42.30;;;;;;5035294;28;20026;-14
2022/07/27 10:06:52;;;;;;;6.50;3.90;;;33.10;41.90;;;;;;5034443;28;20057;-14
2022/07/27 10:09:19;;;;;;;9.73;4.68;;;33.60;41.30;;;;;;5035269;28;20029;-14
2022/07/27 10:11:48;;;;;;;6.32;4.60;;;33.90;39.30;;;;;;5035356;28;20108;-14
2022/07/27 10:14:15;;;;;;;8.20;4.38;;;34.00;39.60;;;;;;5035031;28;20489;-15
2022/07/27 10:16:42;;;;;;;6.25;4.05;;;33.90;39.70;;;;;;5035217;28;20037;-13
2022/07/27 10:19:13;;;;;;;10.10;4.20;;;34.00;39.90;;;;;;5035174;28;20029;-14
2022/07/27 10:21:43;;;;;;;8.10;4.65;;;34.10;39.40;;;;;;5035246;28;20022;-13
2022/07/27 10:24:32;;;;;;;6.68;4.32;;;34.20;39.20;;;;;;5035461;28;20049;-13
2022/07/27 10:27:16;;;;;;;5.90;4.35;;;34.40;39.60;;;;;;5035441;28;20063;-14
2022/07/27 10:29:42;;;;;;;10.68;4.78;;;34.70;38.70;;;;;;5035457;28;20057;-14
2022/07/27 10:32:08;;;;;;;6.53;4.50;;;34.50;39.20;;;;;;5034870;28;20087;-14
2022/07/27 10:34:38;;;;;;;6.00;4.38;;;34.50;39.10;;;;;;5034736;28;20025;-13
2022/07/27 10:37:17;;;;;;;6.18;4.55;;;34.20;39.10;;;;;;5035264;28;20540;-13
2022/07/27 10:39:48;;;;;;;5.90;4.03;;;34.40;38.30;;;;;;5035224;28;20093;-13
2022/07/27 10:42:20;;;;;;;5.53;3.83;;;34.70;38.60;;;;;;5033439;28;20022;-14
2022/07/27 10:45:10;;;;;;;6.35;4.10;;;35.20;37.20;;;;;;5034930;28;20048;-14
2022/07/27 10:47:43;;;;;;;6.45;4.35;;;35.50;37.40;;;;;;5034993;28;20021;-14
2022/07/27 10:50:15;;;;;;;7.00;4.00;;;35.60;36.20;;;;;;5034903;28;20033;-14
2022/07/27 10:52:45;;;;;;;5.50;4.13;;;35.80;36.20;;;;;;5034861;28;20025;-14
2022/07/27 10:55:29;;;;;;;6.90;3.80;;;35.90;36.20;;;;;;5034933;28;20029;-14
2022/07/27 10:57:56;;;;;;;6.93;4.07;;;36.30;34.90;;;;;;5034501;28;20091;-13
2022/07/27 11:00:50;;;;;;;7.20;4.32;;;36.50;35.40;;;;;;5034387;28;20029;-13
2022/07/27 11:03:28;;;;;;;6.25;4.30;;;36.70;35.30;;;;;;5034663;28;20029;-13
2022/07/27 11:05:55;;;;;;;5.10;4.20;;;36.80;33.70;;;;;;5034708;28;20030;-14
2022/07/27 11:08:42;;;;;;;4.43;3.78;;;37.00;34.70;;;;;;5034081;28;20040;-14
2022/07/27 11:11:14;;;;;;;5.90;3.90;;;36.90;33.80;;;;;;5034701;28;20029;-14
2022/07/27 11:13:40;;;;;;;5.53;4.20;;;36.90;33.80;;;;;;5034559;28;20080;-13
2022/07/27 11:16:11;;;;;;;4.13;3.58;;;37.00;34.60;;;;;;5034459;28;20104;-13
2022/07/27 11:18:39;;;;;;;6.18;4.30;;;37.40;34.20;;;;;;5033818;28;20030;-13
2022/07/27 11:21:25;;;;;;;6.38;4.30;;;37.80;33.00;;;;;;5034480;28;20029;-14
2022/07/27 11:23:52;;;;;;;4.13;3.70;;;37.70;32.00;;;;;;5034231;28;20469;-15
2022/07/27 11:26:21;;;;;;;5.93;3.80;;;37.50;32.00;;;;;;5033807;28;20029;-15
2022/07/27 11:28:48;;;;;;;7.03;3.97;;;37.40;32.50;;;;;;5034222;28;20030;-15
2022/07/27 11:31:15;;;;;;;5.15;3.50;;;37.40;33.10;;;;;;5034156;28;20033;-15
2022/07/27 11:33:55;;;;;;;6.40;3.58;;;37.60;33.00;;;;;;5033963;28;20033;-15
2022/07/27 11:36:33;;;;;;;5.85;3.60;;;38.20;32.70;;;;;;5033877;28;20018;-14
2022/07/27 11:38:59;;;;;;;6.35;4.00;;;38.70;32.10;;;;;;5033844;28;20456;-14
2022/07/27 11:41:28;;;;;;;4.95;3.88;;;38.80;31.90;;;;;;5034035;28;20567;-14
2022/07/27 11:44:00;;;;;;;5.63;3.78;;;38.70;31.70;;;;;;5033655;28;20044;-14
2022/07/27 11:46:28;;;;;;;3.90;3.50;;;38.90;31.20;;;;;;5033463;28;20033;-13
2022/07/27 11:49:07;;;;;;;4.93;3.60;;;38.50;31.30;;;;;;5032490;28;20100;-13
2022/07/27 11:51:52;;;;;;;5.90;3.53;;;38.60;30.40;;;;;;5033612;28;20115;-14
2022/07/27 11:54:24;;;;;;;7.25;3.80;;;38.90;30.20;;;;;;5033503;28;20030;-14
2022/07/27 11:56:56;;;;;;;4.38;3.70;;;39.10;30.80;;;;;;5033993;28;20053;-13
2022/07/27 11:59:29;;;;;;;4.95;4.00;;;39.40;31.00;;;;;;5033812;28;20022;-14
2022/07/27 12:01:58;;;;;;;5.00;3.70;;;39.30;30.10;;;;;;5033458;28;20025;-14
2022/07/27 12:04:30;;;;;;;5.43;3.47;;;39.50;30.20;;;;;;5032989;28;20393;-13
2022/07/27 12:07:06;;;;;;;4.00;3.60;;;39.20;30.60;;;;;;5033834;28;20021;-14
2022/07/27 12:09:35;;;;;;;4.60;3.55;;;39.40;30.80;;;;;;5033669;28;20026;-14
2022/07/27 12:12:13;;;;;;;4.93;3.70;;;39.70;29.70;;;;;;5033133;28;20022;-14
2022/07/27 12:14:49;;;;;;;5.55;3.65;;;39.50;29.40;;;;;;5033719;28;20381;-14
2022/07/27 12:17:18;;;;;;;7.10;3.92;;;39.80;30.00;;;;;;5033543;28;20496;-14
2022/07/27 12:19:59;;;;;;;3.97;3.55;;;39.60;30.90;;;;;;5033191;28;20030;-14
2022/07/27 12:22:32;;;;;;;4.75;3.72;;;39.40;29.00;;;;;;5032932;28;20029;-14
2022/07/27 12:25:01;;;;;;;3.65;3.20;;;39.40;29.90;;;;;;5033117;28;20026;-14
2022/07/27 12:27:27;;;;;;;4.28;3.53;;;39.90;29.40;;;;;;5033377;28;20108;-14
2022/07/27 12:30:18;;;;;;;3.63;3.28;;;40.50;29.00;;;;;;5032499;28;20505;-14
2022/07/27 12:32:45;;;;;;;5.22;3.60;;;40.80;27.50;;;;;;5032873;28;20033;-14
2022/07/27 12:35:22;;;;;;;4.82;3.75;;;40.70;28.50;;;;;;5033228;28;20021;-14
2022/07/27 12:38:03;;;;;;;7.80;3.67;;;40.80;27.80;;;;;;5032973;28;20389;-13
2022/07/27 12:40:30;;;;;;;6.57;3.65;;;40.80;27.90;;;;;;5031543;28;20389;-13
2022/07/27 12:43:03;;;;;;;4.85;3.70;;;40.60;28.10;;;;;;5032923;28;20028;-14
2022/07/27 12:45:37;;;;;;;4.68;3.80;;;40.90;28.20;;;;;;5032669;28;20061;-13
2022/07/27 12:48:25;;;;;;;5.78;3.58;;;40.90;27.60;;;;;;5031532;28;20033;-13
2022/07/27 12:50:59;;;;;;;4.07;3.60;;;41.00;27.30;;;;;;5032910;28;20486;-13
2022/07/27 12:53:26;;;;;;;4.35;3.60;;;41.20;27.40;;;;;;5032798;28;20025;-12
2022/07/27 12:55:55;;;;;;;7.07;4.07;;;40.70;28.40;;;;;;5032805;28;20029;-13